sensor_id;sensor_type;location;lat;lon;timestamp;P1;durP1;ratioP1;P2;durP2;ratioP2
54627;SDS011;40525;55.926;21.066;2024-03-08T00:02:15;6.40;;;2.50;;
54627;SDS011;40525;55.926;21.066;2024-03-08T00:04:42;4.20;;;2.20;;
54627;SDS011;40525;55.926;21.066;2024-03-08T00:07:09;6.70;;;3.10;;
54627;SDS011;40525;55.926;21.066;2024-03-08T00:09:36;4.10;;;2.20;;
54627;SDS011;40525;55.926;21.066;2024-03-08T00:12:03;3.70;;;1.90;;
54627;SDS011;40525;55.926;21.066;2024-03-08T00:14:30;4.10;;;2.30;;
54627;SDS011;40525;55.926;21.066;2024-03-08T00:16:57;2.60;;;1.80;;
54627;SDS011;40525;55.926;21.066;2024-03-08T00:19:24;3.10;;;2.00;;
54627;SDS011;40525;55.926;21.066;2024-03-08T00:21:51;3.10;;;2.10;;
54627;SDS011;40525;55.926;21.066;2024-03-08T00:24:18;2.60;;;2.00;;
54627;SDS011;40525;55.926;21.066;2024-03-08T00:26:45;3.40;;;2.20;;
54627;SDS011;40525;55.926;21.066;2024-03-08T00:29:12;4.20;;;2.10;;
54627;SDS011;40525;55.926;21.066;2024-03-08T00:31:39;3.80;;;2.60;;
54627;SDS011;40525;55.926;21.066;2024-03-08T00:34:06;4.10;;;2.40;;
54627;SDS011;40525;55.926;21.066;2024-03-08T00:36:33;3.60;;;1.90;;
54627;SDS011;40525;55.926;21.066;2024-03-08T00:39:00;3.80;;;2.10;;
54627;SDS011;40525;55.926;21.066;2024-03-08T00:41:28;4.10;;;2.30;;
54627;SDS011;40525;55.926;21.066;2024-03-08T00:43:58;4.50;;;2.10;;
54627;SDS011;40525;55.926;21.066;2024-03-08T00:46:25;4.10;;;1.90;;
54627;SDS011;40525;55.926;21.066;2024-03-08T00:48:54;6.40;;;2.30;;
54627;SDS011;40525;55.926;21.066;2024-03-08T00:51:22;3.50;;;1.90;;
54627;SDS011;40525;55.926;21.066;2024-03-08T00:53:49;3.70;;;2.00;;
54627;SDS011;40525;55.926;21.066;2024-03-08T00:56:16;3.30;;;1.90;;
54627;SDS011;40525;55.926;21.066;2024-03-08T00:58:43;3.40;;;1.90;;
54627;SDS011;40525;55.926;21.066;2024-03-08T01:01:10;3.80;;;2.20;;
54627;SDS011;40525;55.926;21.066;2024-03-08T01:03:37;3.90;;;2.30;;
54627;SDS011;40525;55.926;21.066;2024-03-08T01:06:04;3.60;;;2.10;;
54627;SDS011;40525;55.926;21.066;2024-03-08T01:08:31;2.80;;;1.80;;
54627;SDS011;40525;55.926;21.066;2024-03-08T01:10:58;3.50;;;2.00;;
54627;SDS011;40525;55.926;21.066;2024-03-08T01:13:25;2.40;;;1.70;;
54627;SDS011;40525;55.926;21.066;2024-03-08T01:15:52;3.50;;;2.10;;
54627;SDS011;40525;55.926;21.066;2024-03-08T01:18:20;2.30;;;1.60;;
54627;SDS011;40525;55.926;21.066;2024-03-08T01:20:47;5.70;;;1.90;;
54627;SDS011;40525;55.926;21.066;2024-03-08T01:23:14;4.20;;;2.20;;
54627;SDS011;40525;55.926;21.066;2024-03-08T01:25:41;3.50;;;2.00;;
54627;SDS011;40525;55.926;21.066;2024-03-08T01:28:10;2.60;;;1.80;;
54627;SDS011;40525;55.926;21.066;2024-03-08T01:30:37;3.20;;;2.10;;
54627;SDS011;40525;55.926;21.066;2024-03-08T01:33:05;4.10;;;2.30;;
54627;SDS011;40525;55.926;21.066;2024-03-08T01:35:32;4.90;;;1.90;;
54627;SDS011;40525;55.926;21.066;2024-03-08T01:37:59;5.00;;;2.40;;
54627;SDS011;40525;55.926;21.066;2024-03-08T01:40:27;3.20;;;2.10;;
54627;SDS011;40525;55.926;21.066;2024-03-08T01:42:54;2.70;;;1.90;;
54627;SDS011;40525;55.926;21.066;2024-03-08T01:45:21;2.00;;;1.40;;
54627;SDS011;40525;55.926;21.066;2024-03-08T01:47:48;2.60;;;1.60;;
54627;SDS011;40525;55.926;21.066;2024-03-08T01:50:16;2.20;;;1.40;;
54627;SDS011;40525;55.926;21.066;2024-03-08T01:52:43;4.90;;;2.00;;
54627;SDS011;40525;55.926;21.066;2024-03-08T01:55:10;6.50;;;2.80;;
54627;SDS011;40525;55.926;21.066;2024-03-08T01:57:42;4.30;;;2.30;;
54627;SDS011;40525;55.926;21.066;2024-03-08T02:00:10;4.30;;;2.40;;
54627;SDS011;40525;55.926;21.066;2024-03-08T02:02:38;3.70;;;1.80;;
54627;SDS011;40525;55.926;21.066;2024-03-08T02:05:08;4.60;;;2.70;;
54627;SDS011;40525;55.926;21.066;2024-03-08T02:07:35;3.70;;;2.20;;
54627;SDS011;40525;55.926;21.066;2024-03-08T02:10:02;3.20;;;2.30;;
54627;SDS011;40525;55.926;21.066;2024-03-08T02:12:30;3.70;;;2.30;;
54627;SDS011;40525;55.926;21.066;2024-03-08T02:14:57;3.80;;;2.40;;
54627;SDS011;40525;55.926;21.066;2024-03-08T02:17:24;4.40;;;2.70;;
54627;SDS011;40525;55.926;21.066;2024-03-08T02:19:51;5.00;;;2.20;;
54627;SDS011;40525;55.926;21.066;2024-03-08T02:22:18;4.60;;;2.20;;
54627;SDS011;40525;55.926;21.066;2024-03-08T02:24:46;3.80;;;2.30;;
54627;SDS011;40525;55.926;21.066;2024-03-08T02:27:13;3.80;;;2.10;;
54627;SDS011;40525;55.926;21.066;2024-03-08T02:29:43;3.10;;;2.00;;
54627;SDS011;40525;55.926;21.066;2024-03-08T02:32:11;2.80;;;1.90;;
54627;SDS011;40525;55.926;21.066;2024-03-08T02:34:38;3.20;;;2.30;;
54627;SDS011;40525;55.926;21.066;2024-03-08T02:37:05;4.00;;;2.20;;
54627;SDS011;40525;55.926;21.066;2024-03-08T02:39:32;4.60;;;2.60;;
54627;SDS011;40525;55.926;21.066;2024-03-08T02:41:59;4.50;;;3.30;;
54627;SDS011;40525;55.926;21.066;2024-03-08T02:44:27;6.00;;;3.00;;
54627;SDS011;40525;55.926;21.066;2024-03-08T02:46:54;4.40;;;2.70;;
54627;SDS011;40525;55.926;21.066;2024-03-08T02:49:21;3.50;;;2.40;;
54627;SDS011;40525;55.926;21.066;2024-03-08T02:51:48;5.20;;;2.80;;
54627;SDS011;40525;55.926;21.066;2024-03-08T02:54:16;4.40;;;2.40;;
54627;SDS011;40525;55.926;21.066;2024-03-08T02:56:44;3.00;;;2.30;;
54627;SDS011;40525;55.926;21.066;2024-03-08T02:59:11;3.90;;;2.70;;
54627;SDS011;40525;55.926;21.066;2024-03-08T03:01:38;3.60;;;2.40;;
54627;SDS011;40525;55.926;21.066;2024-03-08T03:04:05;3.80;;;2.10;;
54627;SDS011;40525;55.926;21.066;2024-03-08T03:06:32;4.80;;;2.40;;
54627;SDS011;40525;55.926;21.066;2024-03-08T03:09:00;3.50;;;2.20;;
54627;SDS011;40525;55.926;21.066;2024-03-08T03:11:27;4.80;;;2.90;;
54627;SDS011;40525;55.926;21.066;2024-03-08T03:13:54;3.40;;;2.40;;
54627;SDS011;40525;55.926;21.066;2024-03-08T03:16:22;3.20;;;2.50;;
54627;SDS011;40525;55.926;21.066;2024-03-08T03:18:49;2.80;;;2.10;;
54627;SDS011;40525;55.926;21.066;2024-03-08T03:21:16;4.20;;;2.60;;
54627;SDS011;40525;55.926;21.066;2024-03-08T03:23:44;4.60;;;2.70;;
54627;SDS011;40525;55.926;21.066;2024-03-08T03:26:11;3.10;;;2.20;;
54627;SDS011;40525;55.926;21.066;2024-03-08T03:28:39;3.70;;;2.40;;
54627;SDS011;40525;55.926;21.066;2024-03-08T03:31:06;3.30;;;2.20;;
54627;SDS011;40525;55.926;21.066;2024-03-08T03:33:36;3.20;;;2.20;;
54627;SDS011;40525;55.926;21.066;2024-03-08T03:36:04;4.00;;;2.40;;
54627;SDS011;40525;55.926;21.066;2024-03-08T03:38:32;3.40;;;2.40;;
54627;SDS011;40525;55.926;21.066;2024-03-08T03:41:01;4.50;;;2.20;;
54627;SDS011;40525;55.926;21.066;2024-03-08T03:43:37;4.50;;;2.60;;
54627;SDS011;40525;55.926;21.066;2024-03-08T03:46:06;4.30;;;2.70;;
54627;SDS011;40525;55.926;21.066;2024-03-08T03:48:34;4.60;;;2.50;;
54627;SDS011;40525;55.926;21.066;2024-03-08T03:51:01;4.40;;;2.70;;
54627;SDS011;40525;55.926;21.066;2024-03-08T03:53:28;6.70;;;2.90;;
54627;SDS011;40525;55.926;21.066;2024-03-08T03:55:55;3.30;;;2.30;;
54627;SDS011;40525;55.926;21.066;2024-03-08T03:58:24;3.50;;;2.30;;
54627;SDS011;40525;55.926;21.066;2024-03-08T04:00:51;3.40;;;2.10;;
54627;SDS011;40525;55.926;21.066;2024-03-08T04:03:17;4.50;;;2.70;;
54627;SDS011;40525;55.926;21.066;2024-03-08T04:05:46;3.60;;;2.40;;
54627;SDS011;40525;55.926;21.066;2024-03-08T04:08:13;3.80;;;2.70;;
54627;SDS011;40525;55.926;21.066;2024-03-08T04:10:40;4.50;;;2.50;;
54627;SDS011;40525;55.926;21.066;2024-03-08T04:13:10;4.30;;;2.60;;
54627;SDS011;40525;55.926;21.066;2024-03-08T04:15:37;3.10;;;2.40;;
54627;SDS011;40525;55.926;21.066;2024-03-08T04:18:04;2.70;;;2.00;;
54627;SDS011;40525;55.926;21.066;2024-03-08T04:20:32;3.70;;;2.40;;
54627;SDS011;40525;55.926;21.066;2024-03-08T04:22:59;4.80;;;2.30;;
54627;SDS011;40525;55.926;21.066;2024-03-08T04:25:26;2.90;;;2.40;;
54627;SDS011;40525;55.926;21.066;2024-03-08T04:27:53;4.30;;;2.40;;
54627;SDS011;40525;55.926;21.066;2024-03-08T04:30:20;3.20;;;2.00;;
54627;SDS011;40525;55.926;21.066;2024-03-08T04:32:48;3.60;;;2.10;;
54627;SDS011;40525;55.926;21.066;2024-03-08T04:35:16;2.50;;;2.10;;
54627;SDS011;40525;55.926;21.066;2024-03-08T04:37:43;3.40;;;2.20;;
54627;SDS011;40525;55.926;21.066;2024-03-08T04:40:11;4.70;;;2.60;;
54627;SDS011;40525;55.926;21.066;2024-03-08T04:42:38;3.20;;;2.20;;
54627;SDS011;40525;55.926;21.066;2024-03-08T04:45:08;4.70;;;2.10;;
54627;SDS011;40525;55.926;21.066;2024-03-08T04:47:38;2.90;;;2.10;;
54627;SDS011;40525;55.926;21.066;2024-03-08T04:50:05;3.40;;;2.30;;
54627;SDS011;40525;55.926;21.066;2024-03-08T04:52:32;5.20;;;2.40;;
54627;SDS011;40525;55.926;21.066;2024-03-08T04:54:59;3.10;;;2.10;;
54627;SDS011;40525;55.926;21.066;2024-03-08T04:57:26;4.30;;;2.60;;
54627;SDS011;40525;55.926;21.066;2024-03-08T04:59:54;3.80;;;2.60;;
54627;SDS011;40525;55.926;21.066;2024-03-08T05:02:21;4.10;;;2.70;;
54627;SDS011;40525;55.926;21.066;2024-03-08T05:04:49;4.40;;;2.90;;
54627;SDS011;40525;55.926;21.066;2024-03-08T05:07:16;3.60;;;2.10;;
54627;SDS011;40525;55.926;21.066;2024-03-08T05:09:43;4.20;;;2.70;;
54627;SDS011;40525;55.926;21.066;2024-03-08T05:12:18;4.20;;;1.90;;
54627;SDS011;40525;55.926;21.066;2024-03-08T05:14:46;4.10;;;2.20;;
54627;SDS011;40525;55.926;21.066;2024-03-08T05:17:16;3.90;;;2.40;;
54627;SDS011;40525;55.926;21.066;2024-03-08T05:19:44;3.10;;;2.00;;
54627;SDS011;40525;55.926;21.066;2024-03-08T05:22:11;4.60;;;2.20;;
54627;SDS011;40525;55.926;21.066;2024-03-08T05:24:38;3.60;;;2.30;;
54627;SDS011;40525;55.926;21.066;2024-03-08T05:27:05;4.40;;;2.70;;
54627;SDS011;40525;55.926;21.066;2024-03-08T05:29:33;3.10;;;2.40;;
54627;SDS011;40525;55.926;21.066;2024-03-08T05:32:00;5.20;;;2.50;;
54627;SDS011;40525;55.926;21.066;2024-03-08T05:34:27;3.70;;;2.70;;
54627;SDS011;40525;55.926;21.066;2024-03-08T05:36:55;3.80;;;2.60;;
54627;SDS011;40525;55.926;21.066;2024-03-08T05:39:24;8.30;;;2.60;;
54627;SDS011;40525;55.926;21.066;2024-03-08T05:41:51;3.60;;;2.30;;
54627;SDS011;40525;55.926;21.066;2024-03-08T05:44:19;4.50;;;2.70;;
54627;SDS011;40525;55.926;21.066;2024-03-08T05:46:47;5.40;;;2.70;;
54627;SDS011;40525;55.926;21.066;2024-03-08T05:49:14;5.10;;;3.10;;
54627;SDS011;40525;55.926;21.066;2024-03-08T05:51:41;7.00;;;2.60;;
54627;SDS011;40525;55.926;21.066;2024-03-08T05:54:12;3.90;;;2.40;;
54627;SDS011;40525;55.926;21.066;2024-03-08T05:56:43;3.30;;;2.00;;
54627;SDS011;40525;55.926;21.066;2024-03-08T05:59:12;3.80;;;2.20;;
54627;SDS011;40525;55.926;21.066;2024-03-08T06:01:40;3.60;;;2.30;;
54627;SDS011;40525;55.926;21.066;2024-03-08T06:04:09;3.70;;;2.20;;
54627;SDS011;40525;55.926;21.066;2024-03-08T06:06:38;3.00;;;1.70;;
54627;SDS011;40525;55.926;21.066;2024-03-08T06:09:07;3.90;;;1.90;;
54627;SDS011;40525;55.926;21.066;2024-03-08T06:11:44;3.30;;;1.80;;
54627;SDS011;40525;55.926;21.066;2024-03-08T06:14:12;3.30;;;1.90;;
54627;SDS011;40525;55.926;21.066;2024-03-08T06:16:39;4.10;;;2.00;;
54627;SDS011;40525;55.926;21.066;2024-03-08T06:19:06;4.00;;;2.10;;
54627;SDS011;40525;55.926;21.066;2024-03-08T06:21:33;3.20;;;1.70;;
54627;SDS011;40525;55.926;21.066;2024-03-08T06:24:00;4.60;;;1.90;;
54627;SDS011;40525;55.926;21.066;2024-03-08T06:26:27;3.20;;;1.80;;
54627;SDS011;40525;55.926;21.066;2024-03-08T06:28:59;3.00;;;1.80;;
54627;SDS011;40525;55.926;21.066;2024-03-08T06:31:26;2.60;;;1.90;;
54627;SDS011;40525;55.926;21.066;2024-03-08T06:33:53;3.30;;;2.20;;
54627;SDS011;40525;55.926;21.066;2024-03-08T06:36:23;2.90;;;2.00;;
54627;SDS011;40525;55.926;21.066;2024-03-08T06:38:51;3.10;;;2.10;;
54627;SDS011;40525;55.926;21.066;2024-03-08T06:41:19;4.50;;;1.80;;
54627;SDS011;40525;55.926;21.066;2024-03-08T06:43:46;3.10;;;2.00;;
54627;SDS011;40525;55.926;21.066;2024-03-08T06:46:15;2.70;;;2.00;;
54627;SDS011;40525;55.926;21.066;2024-03-08T06:48:43;2.70;;;1.80;;
54627;SDS011;40525;55.926;21.066;2024-03-08T06:51:10;2.40;;;1.90;;
54627;SDS011;40525;55.926;21.066;2024-03-08T06:53:38;3.30;;;2.00;;
54627;SDS011;40525;55.926;21.066;2024-03-08T06:56:05;2.40;;;1.90;;
54627;SDS011;40525;55.926;21.066;2024-03-08T06:58:35;2.90;;;2.00;;
54627;SDS011;40525;55.926;21.066;2024-03-08T07:01:02;4.90;;;3.30;;
54627;SDS011;40525;55.926;21.066;2024-03-08T07:03:31;3.50;;;2.40;;
54627;SDS011;40525;55.926;21.066;2024-03-08T07:05:59;3.80;;;2.30;;
54627;SDS011;40525;55.926;21.066;2024-03-08T07:08:30;3.30;;;2.10;;
54627;SDS011;40525;55.926;21.066;2024-03-08T07:10:57;3.00;;;2.20;;
54627;SDS011;40525;55.926;21.066;2024-03-08T07:13:26;3.30;;;2.00;;
54627;SDS011;40525;55.926;21.066;2024-03-08T07:15:56;3.00;;;2.00;;
54627;SDS011;40525;55.926;21.066;2024-03-08T07:18:26;5.50;;;2.30;;
54627;SDS011;40525;55.926;21.066;2024-03-08T07:20:57;2.60;;;1.90;;
54627;SDS011;40525;55.926;21.066;2024-03-08T07:23:24;3.60;;;2.70;;
54627;SDS011;40525;55.926;21.066;2024-03-08T07:26:10;3.80;;;2.40;;
54627;SDS011;40525;55.926;21.066;2024-03-08T07:28:37;3.20;;;2.10;;
54627;SDS011;40525;55.926;21.066;2024-03-08T07:31:04;4.00;;;2.60;;
54627;SDS011;40525;55.926;21.066;2024-03-08T07:33:52;2.90;;;1.80;;
54627;SDS011;40525;55.926;21.066;2024-03-08T07:36:22;4.00;;;2.70;;
54627;SDS011;40525;55.926;21.066;2024-03-08T07:38:49;4.20;;;2.20;;
54627;SDS011;40525;55.926;21.066;2024-03-08T07:41:16;4.10;;;2.50;;
54627;SDS011;40525;55.926;21.066;2024-03-08T07:43:43;5.50;;;2.40;;
54627;SDS011;40525;55.926;21.066;2024-03-08T07:46:10;6.30;;;3.30;;
54627;SDS011;40525;55.926;21.066;2024-03-08T07:48:37;4.90;;;2.90;;
54627;SDS011;40525;55.926;21.066;2024-03-08T07:51:04;3.60;;;2.40;;
54627;SDS011;40525;55.926;21.066;2024-03-08T07:53:32;4.70;;;2.20;;
54627;SDS011;40525;55.926;21.066;2024-03-08T07:55:59;6.40;;;3.20;;
54627;SDS011;40525;55.926;21.066;2024-03-08T07:58:27;5.80;;;2.90;;
54627;SDS011;40525;55.926;21.066;2024-03-08T08:00:55;3.30;;;2.50;;
54627;SDS011;40525;55.926;21.066;2024-03-08T08:03:22;5.30;;;2.30;;
54627;SDS011;40525;55.926;21.066;2024-03-08T08:05:49;5.00;;;3.00;;
54627;SDS011;40525;55.926;21.066;2024-03-08T08:08:16;4.80;;;2.70;;
54627;SDS011;40525;55.926;21.066;2024-03-08T08:10:43;11.20;;;2.90;;
54627;SDS011;40525;55.926;21.066;2024-03-08T08:13:10;6.00;;;2.50;;
54627;SDS011;40525;55.926;21.066;2024-03-08T08:15:38;3.00;;;2.30;;
54627;SDS011;40525;55.926;21.066;2024-03-08T08:18:05;3.50;;;2.10;;
54627;SDS011;40525;55.926;21.066;2024-03-08T08:20:33;5.00;;;2.00;;
54627;SDS011;40525;55.926;21.066;2024-03-08T08:23:00;3.20;;;2.30;;
54627;SDS011;40525;55.926;21.066;2024-03-08T08:25:27;5.70;;;2.20;;
54627;SDS011;40525;55.926;21.066;2024-03-08T08:27:55;5.20;;;2.60;;
54627;SDS011;40525;55.926;21.066;2024-03-08T08:30:21;5.70;;;2.60;;
54627;SDS011;40525;55.926;21.066;2024-03-08T08:32:49;4.80;;;2.60;;
54627;SDS011;40525;55.926;21.066;2024-03-08T08:35:16;6.60;;;2.70;;
54627;SDS011;40525;55.926;21.066;2024-03-08T08:37:45;3.00;;;2.20;;
54627;SDS011;40525;55.926;21.066;2024-03-08T08:40:12;3.10;;;2.10;;
54627;SDS011;40525;55.926;21.066;2024-03-08T08:42:44;5.80;;;2.40;;
54627;SDS011;40525;55.926;21.066;2024-03-08T08:45:15;2.30;;;2.10;;
54627;SDS011;40525;55.926;21.066;2024-03-08T08:47:51;2.10;;;1.40;;
54627;SDS011;40525;55.926;21.066;2024-03-08T08:50:18;1.90;;;1.10;;
54627;SDS011;40525;55.926;21.066;2024-03-08T08:52:53;1.70;;;1.20;;
54627;SDS011;40525;55.926;21.066;2024-03-08T08:55:21;1.70;;;1.00;;
54627;SDS011;40525;55.926;21.066;2024-03-08T08:57:53;2.30;;;1.10;;
54627;SDS011;40525;55.926;21.066;2024-03-08T09:00:20;1.60;;;1.40;;
54627;SDS011;40525;55.926;21.066;2024-03-08T09:02:48;1.40;;;0.90;;
54627;SDS011;40525;55.926;21.066;2024-03-08T09:05:15;0.70;;;0.50;;
54627;SDS011;40525;55.926;21.066;2024-03-08T09:07:43;2.50;;;1.10;;
54627;SDS011;40525;55.926;21.066;2024-03-08T09:10:14;0.80;;;0.60;;
54627;SDS011;40525;55.926;21.066;2024-03-08T09:12:44;2.50;;;0.60;;
54627;SDS011;40525;55.926;21.066;2024-03-08T09:15:11;1.30;;;0.70;;
54627;SDS011;40525;55.926;21.066;2024-03-08T09:17:39;1.50;;;0.80;;
54627;SDS011;40525;55.926;21.066;2024-03-08T09:20:08;1.10;;;0.90;;
54627;SDS011;40525;55.926;21.066;2024-03-08T09:22:37;1.10;;;0.50;;
54627;SDS011;40525;55.926;21.066;2024-03-08T09:25:04;1.20;;;0.90;;
54627;SDS011;40525;55.926;21.066;2024-03-08T09:27:32;0.90;;;0.70;;
54627;SDS011;40525;55.926;21.066;2024-03-08T09:30:05;1.20;;;0.90;;
54627;SDS011;40525;55.926;21.066;2024-03-08T09:32:34;2.00;;;0.80;;
54627;SDS011;40525;55.926;21.066;2024-03-08T09:35:01;2.20;;;0.90;;
54627;SDS011;40525;55.926;21.066;2024-03-08T09:37:29;1.30;;;0.90;;
54627;SDS011;40525;55.926;21.066;2024-03-08T09:39:57;1.40;;;0.90;;
54627;SDS011;40525;55.926;21.066;2024-03-08T09:42:26;2.90;;;0.90;;
54627;SDS011;40525;55.926;21.066;2024-03-08T09:44:53;2.20;;;0.60;;
54627;SDS011;40525;55.926;21.066;2024-03-08T09:47:20;2.20;;;0.80;;
54627;SDS011;40525;55.926;21.066;2024-03-08T09:49:51;1.10;;;0.80;;
54627;SDS011;40525;55.926;21.066;2024-03-08T09:52:20;1.20;;;0.70;;
54627;SDS011;40525;55.926;21.066;2024-03-08T09:54:47;1.50;;;0.90;;
54627;SDS011;40525;55.926;21.066;2024-03-08T09:57:16;1.50;;;1.00;;
54627;SDS011;40525;55.926;21.066;2024-03-08T09:59:46;3.10;;;0.80;;
54627;SDS011;40525;55.926;21.066;2024-03-08T10:02:15;3.50;;;0.80;;
54627;SDS011;40525;55.926;21.066;2024-03-08T10:04:43;1.20;;;0.70;;
54627;SDS011;40525;55.926;21.066;2024-03-08T10:07:13;1.00;;;0.80;;
54627;SDS011;40525;55.926;21.066;2024-03-08T10:09:40;1.00;;;0.90;;
54627;SDS011;40525;55.926;21.066;2024-03-08T10:12:14;0.80;;;0.80;;
54627;SDS011;40525;55.926;21.066;2024-03-08T10:14:41;1.30;;;0.90;;
54627;SDS011;40525;55.926;21.066;2024-03-08T10:17:09;0.80;;;0.70;;
54627;SDS011;40525;55.926;21.066;2024-03-08T10:19:36;1.20;;;0.80;;
54627;SDS011;40525;55.926;21.066;2024-03-08T10:22:03;1.20;;;0.70;;
54627;SDS011;40525;55.926;21.066;2024-03-08T10:24:31;1.70;;;1.00;;
54627;SDS011;40525;55.926;21.066;2024-03-08T10:27:03;1.10;;;0.70;;
54627;SDS011;40525;55.926;21.066;2024-03-08T10:29:31;1.50;;;0.80;;
54627;SDS011;40525;55.926;21.066;2024-03-08T10:31:59;2.20;;;0.80;;
54627;SDS011;40525;55.926;21.066;2024-03-08T10:34:27;3.30;;;0.80;;
54627;SDS011;40525;55.926;21.066;2024-03-08T10:36:57;2.60;;;0.60;;
54627;SDS011;40525;55.926;21.066;2024-03-08T10:39:36;2.20;;;0.80;;
54627;SDS011;40525;55.926;21.066;2024-03-08T10:42:04;0.90;;;0.60;;
54627;SDS011;40525;55.926;21.066;2024-03-08T10:47:35;2.20;;;0.60;;
54627;SDS011;40525;55.926;21.066;2024-03-08T10:50:11;0.60;;;0.40;;
54627;SDS011;40525;55.926;21.066;2024-03-08T10:52:49;2.00;;;1.00;;
54627;SDS011;40525;55.926;21.066;2024-03-08T10:55:18;1.30;;;0.70;;
54627;SDS011;40525;55.926;21.066;2024-03-08T10:57:47;3.30;;;0.60;;
54627;SDS011;40525;55.926;21.066;2024-03-08T11:00:14;1.60;;;0.70;;
54627;SDS011;40525;55.926;21.066;2024-03-08T11:02:45;0.80;;;0.60;;
54627;SDS011;40525;55.926;21.066;2024-03-08T11:05:31;1.30;;;0.70;;
54627;SDS011;40525;55.926;21.066;2024-03-08T11:10:51;1.60;;;0.60;;
54627;SDS011;40525;55.926;21.066;2024-03-08T11:16:07;1.10;;;0.70;;
54627;SDS011;40525;55.926;21.066;2024-03-08T11:18:36;0.90;;;0.80;;
54627;SDS011;40525;55.926;21.066;2024-03-08T11:21:04;1.20;;;0.70;;
54627;SDS011;40525;55.926;21.066;2024-03-08T11:23:39;1.20;;;0.70;;
54627;SDS011;40525;55.926;21.066;2024-03-08T11:26:19;1.40;;;0.80;;
54627;SDS011;40525;55.926;21.066;2024-03-08T11:28:47;0.80;;;0.60;;
54627;SDS011;40525;55.926;21.066;2024-03-08T11:33:47;1.40;;;0.70;;
54627;SDS011;40525;55.926;21.066;2024-03-08T11:36:25;3.10;;;0.90;;
54627;SDS011;40525;55.926;21.066;2024-03-08T11:38:52;2.50;;;0.70;;
54627;SDS011;40525;55.926;21.066;2024-03-08T11:41:21;0.90;;;0.60;;
54627;SDS011;40525;55.926;21.066;2024-03-08T11:43:50;0.80;;;0.50;;
54627;SDS011;40525;55.926;21.066;2024-03-08T11:46:36;2.30;;;0.80;;
54627;SDS011;40525;55.926;21.066;2024-03-08T11:49:03;1.40;;;1.00;;
54627;SDS011;40525;55.926;21.066;2024-03-08T11:51:30;1.60;;;0.80;;
54627;SDS011;40525;55.926;21.066;2024-03-08T11:53:59;1.30;;;0.60;;
54627;SDS011;40525;55.926;21.066;2024-03-08T11:56:26;1.50;;;0.80;;
54627;SDS011;40525;55.926;21.066;2024-03-08T11:58:54;3.10;;;1.20;;
54627;SDS011;40525;55.926;21.066;2024-03-08T12:01:25;2.30;;;0.90;;
54627;SDS011;40525;55.926;21.066;2024-03-08T12:03:53;2.30;;;0.90;;
54627;SDS011;40525;55.926;21.066;2024-03-08T12:06:21;1.50;;;0.90;;
54627;SDS011;40525;55.926;21.066;2024-03-08T12:08:48;1.90;;;0.80;;
54627;SDS011;40525;55.926;21.066;2024-03-08T12:11:18;1.20;;;0.80;;
54627;SDS011;40525;55.926;21.066;2024-03-08T12:13:55;0.90;;;0.80;;
54627;SDS011;40525;55.926;21.066;2024-03-08T12:16:24;1.20;;;0.70;;
54627;SDS011;40525;55.926;21.066;2024-03-08T12:18:51;2.40;;;0.80;;
54627;SDS011;40525;55.926;21.066;2024-03-08T12:21:20;1.20;;;0.90;;
54627;SDS011;40525;55.926;21.066;2024-03-08T12:23:51;1.60;;;0.80;;
54627;SDS011;40525;55.926;21.066;2024-03-08T12:31:54;1.40;;;0.80;;
54627;SDS011;40525;55.926;21.066;2024-03-08T12:34:25;1.10;;;0.70;;
54627;SDS011;40525;55.926;21.066;2024-03-08T12:36:54;0.80;;;0.70;;
54627;SDS011;40525;55.926;21.066;2024-03-08T12:39:22;1.60;;;1.00;;
54627;SDS011;40525;55.926;21.066;2024-03-08T12:41:54;1.10;;;0.70;;
54627;SDS011;40525;55.926;21.066;2024-03-08T12:44:21;3.20;;;0.80;;
54627;SDS011;40525;55.926;21.066;2024-03-08T12:46:48;3.00;;;1.10;;
54627;SDS011;40525;55.926;21.066;2024-03-08T12:49:19;3.40;;;1.20;;
54627;SDS011;40525;55.926;21.066;2024-03-08T12:51:49;2.80;;;0.90;;
54627;SDS011;40525;55.926;21.066;2024-03-08T12:54:19;2.80;;;1.00;;
54627;SDS011;40525;55.926;21.066;2024-03-08T12:56:50;1.80;;;0.90;;
54627;SDS011;40525;55.926;21.066;2024-03-08T12:59:21;1.70;;;1.00;;
54627;SDS011;40525;55.926;21.066;2024-03-08T13:01:48;1.70;;;1.00;;
54627;SDS011;40525;55.926;21.066;2024-03-08T13:04:18;2.40;;;1.20;;
54627;SDS011;40525;55.926;21.066;2024-03-08T13:06:45;0.80;;;0.60;;
54627;SDS011;40525;55.926;21.066;2024-03-08T13:09:21;76.30;;;7.10;;
54627;SDS011;40525;55.926;21.066;2024-03-08T13:11:49;16.70;;;2.60;;
54627;SDS011;40525;55.926;21.066;2024-03-08T13:14:16;2.20;;;1.10;;
54627;SDS011;40525;55.926;21.066;2024-03-08T13:16:43;1.60;;;0.90;;
54627;SDS011;40525;55.926;21.066;2024-03-08T13:19:15;2.00;;;0.90;;
54627;SDS011;40525;55.926;21.066;2024-03-08T13:21:42;2.90;;;1.10;;
54627;SDS011;40525;55.926;21.066;2024-03-08T13:24:10;1.20;;;0.90;;
54627;SDS011;40525;55.926;21.066;2024-03-08T13:26:38;1.70;;;0.80;;
54627;SDS011;40525;55.926;21.066;2024-03-08T13:29:05;1.20;;;0.80;;
54627;SDS011;40525;55.926;21.066;2024-03-08T13:31:33;1.30;;;0.70;;
54627;SDS011;40525;55.926;21.066;2024-03-08T13:34:03;1.50;;;0.80;;
54627;SDS011;40525;55.926;21.066;2024-03-08T13:36:31;2.70;;;0.90;;
54627;SDS011;40525;55.926;21.066;2024-03-08T13:39:06;1.30;;;0.90;;
54627;SDS011;40525;55.926;21.066;2024-03-08T13:41:42;1.00;;;0.80;;
54627;SDS011;40525;55.926;21.066;2024-03-08T13:44:09;2.50;;;0.90;;
54627;SDS011;40525;55.926;21.066;2024-03-08T13:46:36;1.20;;;1.00;;
54627;SDS011;40525;55.926;21.066;2024-03-08T13:49:04;0.90;;;0.70;;
54627;SDS011;40525;55.926;21.066;2024-03-08T13:51:34;1.20;;;0.80;;
54627;SDS011;40525;55.926;21.066;2024-03-08T13:54:01;1.50;;;1.00;;
54627;SDS011;40525;55.926;21.066;2024-03-08T13:56:29;1.20;;;0.70;;
54627;SDS011;40525;55.926;21.066;2024-03-08T13:58:59;1.80;;;0.90;;
54627;SDS011;40525;55.926;21.066;2024-03-08T14:01:26;2.00;;;1.10;;
54627;SDS011;40525;55.926;21.066;2024-03-08T14:03:53;2.60;;;0.80;;
54627;SDS011;40525;55.926;21.066;2024-03-08T14:06:20;2.20;;;1.00;;
54627;SDS011;40525;55.926;21.066;2024-03-08T14:08:49;1.70;;;1.00;;
54627;SDS011;40525;55.926;21.066;2024-03-08T14:11:16;1.10;;;1.00;;
54627;SDS011;40525;55.926;21.066;2024-03-08T14:13:46;1.30;;;0.90;;
54627;SDS011;40525;55.926;21.066;2024-03-08T14:16:14;1.90;;;1.20;;
54627;SDS011;40525;55.926;21.066;2024-03-08T14:18:42;4.20;;;1.30;;
54627;SDS011;40525;55.926;21.066;2024-03-08T14:21:09;3.80;;;1.50;;
54627;SDS011;40525;55.926;21.066;2024-03-08T14:23:37;2.70;;;1.60;;
54627;SDS011;40525;55.926;21.066;2024-03-08T14:26:08;1.70;;;1.00;;
54627;SDS011;40525;55.926;21.066;2024-03-08T14:28:36;2.10;;;1.10;;
54627;SDS011;40525;55.926;21.066;2024-03-08T14:31:05;2.90;;;1.40;;
54627;SDS011;40525;55.926;21.066;2024-03-08T14:33:37;5.10;;;2.00;;
54627;SDS011;40525;55.926;21.066;2024-03-08T14:36:04;2.80;;;1.70;;
54627;SDS011;40525;55.926;21.066;2024-03-08T14:38:32;3.10;;;1.40;;
54627;SDS011;40525;55.926;21.066;2024-03-08T14:40:59;1.40;;;1.20;;
54627;SDS011;40525;55.926;21.066;2024-03-08T14:43:27;1.20;;;1.00;;
54627;SDS011;40525;55.926;21.066;2024-03-08T14:45:55;1.50;;;1.10;;
54627;SDS011;40525;55.926;21.066;2024-03-08T14:48:22;1.60;;;0.70;;
54627;SDS011;40525;55.926;21.066;2024-03-08T14:50:49;2.10;;;0.90;;
54627;SDS011;40525;55.926;21.066;2024-03-08T14:53:17;1.40;;;0.70;;
54627;SDS011;40525;55.926;21.066;2024-03-08T14:55:45;1.80;;;1.00;;
54627;SDS011;40525;55.926;21.066;2024-03-08T14:58:14;2.60;;;1.50;;